createdAt,value
2017-06-13T00:00:39.837Z,22.50
2017-06-13T00:03:07.372Z,22.50
2017-06-13T00:05:34.931Z,22.50
2017-06-13T00:08:02.483Z,22.50
2017-06-13T00:10:30.042Z,22.50
2017-06-13T00:12:57.610Z,22.50
2017-06-13T00:15:25.142Z,22.50
2017-06-13T00:17:52.689Z,22.50
2017-06-13T00:20:20.241Z,22.50
2017-06-13T00:22:47.793Z,22.40
2017-06-13T00:25:15.313Z,22.40
2017-06-13T00:27:42.858Z,22.40
2017-06-13T00:30:10.386Z,22.40
2017-06-13T00:32:37.953Z,22.40
2017-06-13T00:35:05.523Z,22.40
2017-06-13T00:37:33.106Z,22.40
2017-06-13T00:40:00.640Z,22.40
2017-06-13T00:42:28.185Z,22.40
2017-06-13T00:44:55.709Z,22.40
2017-06-13T00:47:23.261Z,22.30
2017-06-13T00:49:50.788Z,22.30
2017-06-13T00:52:18.341Z,22.30
2017-06-13T00:57:36.521Z,22.30
2017-06-13T01:00:04.070Z,22.30
2017-06-13T01:02:31.655Z,22.20
2017-06-13T01:04:59.209Z,22.20
2017-06-13T01:07:26.790Z,22.20
2017-06-13T01:09:54.349Z,22.20
2017-06-13T01:12:21.925Z,22.20
2017-06-13T01:14:50.254Z,22.20
2017-06-13T01:17:17.813Z,22.20
2017-06-13T01:19:45.361Z,22.20
2017-06-13T01:22:12.945Z,22.20
2017-06-13T01:24:40.510Z,22.20
2017-06-13T01:27:08.082Z,22.20
2017-06-13T01:29:35.642Z,22.10
2017-06-13T01:32:03.207Z,22.10
2017-06-13T01:34:30.765Z,22.20
2017-06-13T01:36:58.394Z,22.10
2017-06-13T01:39:25.990Z,22.10
2017-06-13T01:41:53.534Z,22.10
2017-06-13T01:44:21.092Z,22.10
2017-06-13T01:46:48.650Z,22.10
2017-06-13T01:49:16.221Z,22.10
2017-06-13T01:51:43.761Z,22.10
2017-06-13T01:54:11.345Z,22.10
2017-06-13T01:56:38.885Z,22.10
2017-06-13T01:59:06.431Z,22.00
2017-06-13T02:01:33.953Z,22.00
2017-06-13T02:04:01.494Z,22.10
2017-06-13T02:06:29.037Z,22.00
2017-06-13T02:08:56.606Z,22.00
2017-06-13T02:11:24.137Z,22.00
2017-06-13T02:13:51.689Z,22.00
2017-06-13T02:16:19.207Z,22.00
2017-06-13T02:18:46.742Z,22.00
2017-06-13T02:21:14.269Z,22.00
2017-06-13T02:23:41.838Z,22.00
2017-06-13T02:26:09.397Z,21.90
2017-06-13T02:28:36.968Z,21.90
2017-06-13T02:31:04.494Z,21.90
2017-06-13T02:33:32.069Z,21.90
2017-06-13T02:35:59.638Z,21.90
2017-06-13T02:38:27.207Z,21.90
2017-06-13T02:40:54.721Z,21.90
2017-06-13T02:43:22.265Z,21.90
2017-06-13T02:45:49.811Z,21.90
2017-06-13T02:48:17.367Z,21.90
2017-06-13T02:50:44.923Z,21.80
2017-06-13T02:53:12.491Z,21.80
2017-06-13T02:55:40.019Z,21.80
2017-06-13T02:58:07.544Z,21.80
2017-06-13T03:00:35.085Z,21.80
2017-06-13T03:03:02.611Z,21.80
2017-06-13T03:05:30.158Z,21.80
2017-06-13T03:07:57.675Z,21.80
2017-06-13T03:10:25.224Z,21.80
2017-06-13T03:12:52.797Z,21.80
2017-06-13T03:15:20.342Z,21.80
2017-06-13T03:17:47.882Z,21.80
2017-06-13T03:20:15.426Z,21.80
2017-06-13T03:22:42.957Z,21.70
2017-06-13T03:25:10.686Z,21.70
2017-06-13T03:27:38.201Z,21.80
2017-06-13T03:30:05.750Z,21.70
2017-06-13T03:32:33.290Z,21.70
2017-06-13T03:35:00.842Z,21.70
2017-06-13T03:37:28.372Z,21.70
2017-06-13T03:39:55.945Z,21.70
2017-06-13T03:42:23.469Z,21.70
2017-06-13T03:44:51.062Z,21.70
2017-06-13T03:47:18.629Z,21.70
2017-06-13T03:49:46.197Z,21.70
2017-06-13T03:52:13.721Z,21.70
2017-06-13T03:54:41.299Z,21.70
2017-06-13T03:57:08.842Z,21.70
2017-06-13T03:59:36.523Z,21.70
2017-06-13T04:02:04.049Z,21.70
2017-06-13T04:04:31.632Z,21.70
2017-06-13T04:06:59.163Z,21.70
2017-06-13T04:09:26.705Z,21.70
2017-06-13T04:11:54.259Z,21.70
2017-06-13T04:14:21.825Z,21.70
2017-06-13T04:16:49.369Z,21.70
2017-06-13T04:19:16.889Z,21.70
2017-06-13T04:21:44.430Z,21.70
2017-06-13T04:24:11.954Z,21.70
2017-06-13T04:26:39.505Z,21.70
2017-06-13T04:29:07.042Z,21.70
2017-06-13T04:31:34.621Z,21.80
2017-06-13T04:34:02.173Z,21.70
2017-06-13T04:36:29.756Z,21.80
2017-06-13T04:38:57.285Z,21.80
2017-06-13T04:41:24.836Z,21.80
2017-06-13T04:43:52.363Z,21.80
2017-06-13T04:46:19.977Z,21.80
2017-06-13T04:48:47.526Z,21.80
2017-06-13T04:51:15.082Z,21.90
2017-06-13T04:53:42.603Z,21.90
2017-06-13T04:56:10.157Z,21.90
2017-06-13T04:58:37.697Z,22.00
2017-06-13T05:01:05.248Z,22.00
2017-06-13T05:03:32.773Z,22.00
2017-06-13T05:06:00.317Z,22.10
2017-06-13T05:08:27.835Z,22.20
2017-06-13T05:10:55.401Z,22.20
2017-06-13T05:13:23.732Z,22.30
2017-06-13T05:15:51.282Z,22.30
2017-06-13T05:18:18.823Z,22.40
2017-06-13T05:20:46.372Z,22.40
2017-06-13T05:23:13.936Z,22.40
2017-06-13T05:25:41.462Z,22.40
2017-06-13T05:28:09.010Z,22.40
2017-06-13T05:30:36.545Z,22.40
2017-06-13T05:33:04.095Z,22.50
2017-06-13T05:35:31.652Z,22.40
2017-06-13T05:37:59.237Z,22.50
2017-06-13T05:40:26.766Z,22.50
2017-06-13T05:42:54.341Z,22.50
2017-06-13T05:45:21.866Z,22.60
2017-06-13T05:47:49.405Z,22.60
2017-06-13T05:50:16.934Z,22.70
2017-06-13T05:52:44.478Z,22.70
2017-06-13T05:55:12.025Z,22.80
2017-06-13T05:57:39.573Z,22.80
2017-06-13T06:00:07.096Z,22.80
2017-06-13T06:02:34.645Z,22.80
2017-06-13T06:05:02.174Z,22.90
2017-06-13T06:07:29.729Z,22.90
2017-06-13T06:09:57.249Z,22.90
2017-06-13T06:12:24.826Z,22.90
2017-06-13T06:14:52.371Z,23.00
2017-06-13T06:17:19.921Z,23.00
2017-06-13T06:19:47.449Z,23.00
2017-06-13T06:22:15.012Z,23.10
2017-06-13T06:24:42.538Z,23.10
2017-06-13T06:27:10.122Z,23.20
2017-06-13T06:29:37.650Z,23.20
2017-06-13T06:32:05.201Z,23.30
2017-06-13T06:34:32.713Z,23.30
2017-06-13T06:37:00.293Z,23.30
2017-06-13T06:39:27.820Z,23.40
2017-06-13T06:41:55.353Z,23.40
2017-06-13T06:44:22.918Z,23.50
2017-06-13T06:46:50.466Z,23.60
2017-06-13T06:49:18.029Z,23.60
2017-06-13T06:51:45.581Z,23.60
2017-06-13T06:54:13.127Z,23.60
2017-06-13T06:56:40.647Z,23.70
2017-06-13T06:59:08.217Z,23.70
2017-06-13T07:01:35.740Z,23.80
2017-06-13T07:04:03.318Z,23.90
2017-06-13T07:06:30.892Z,23.90
2017-06-13T07:08:58.434Z,24.00
2017-06-13T07:11:25.955Z,24.10
